Black River, Jamaica
Current Conditions -  °F | °C
As of 7:00 AM on Monday 22 Dec 2014 (Local Time) from MKJS Reporting Station
Scattered Clouds Scattered Clouds  
Wind Chill: 75°   Ceiling: Unl
Heat Index: 75°   Visibility: 6mi
Dew Point: 70°   Wind: 1mph
Humidity: 83%   Direction: NA
Pressure: 29.94"   Gusts: NA
Location:  18.03°N, 77.86°W
Report Text: MKJS 221200Z VRB01KT 9999 FEW022 SCT034 24/21 Q1014
Loading
Personal Weather Stations






























Interactive Weather Map New forecast layout! Learn more

10-Day Weather Forecast

Advertisements
Track Severe Weather on mobile